createdAt,value
2023-09-27T04:43:31.625Z,97
2023-09-27T04:45:03.347Z,97
2023-09-27T04:46:35.119Z,98
2023-09-27T04:55:37.079Z,98
2023-09-27T04:57:08.770Z,98
2023-09-27T04:58:40.257Z,98
2023-09-27T05:04:42.116Z,98
2023-09-27T05:06:14.020Z,98
2023-09-27T05:07:45.863Z,98
2023-09-27T05:12:17.703Z,98
2023-09-27T05:13:49.330Z,98
2023-09-27T05:19:51.185Z,98
2023-09-27T05:24:24.521Z,98
2023-09-27T05:28:56.180Z,98
2023-09-27T05:30:27.751Z,98
2023-09-27T05:34:59.591Z,98
2023-09-27T05:36:31.159Z,98
2023-09-27T05:41:02.714Z,98
2023-09-27T05:42:34.197Z,98
2023-09-27T05:48:35.902Z,98
2023-09-27T05:57:43.062Z,98
2023-09-27T06:02:14.719Z,98
2023-09-27T06:05:17.237Z,98
2023-09-27T06:09:49.532Z,98
2023-09-27T06:12:51.022Z,98
2023-09-27T06:14:22.733Z,98
2023-09-27T06:21:56.023Z,98
2023-09-27T06:23:27.730Z,98
2023-09-27T06:27:59.361Z,98
2023-09-27T06:34:04.292Z,98
2023-09-27T06:39:08.685Z,99
2023-09-27T06:41:23.248Z,99
2023-09-27T06:48:11.682Z,99
2023-09-27T06:50:24.966Z,99
2023-09-27T06:58:51.919Z,99
2023-09-27T07:00:24.046Z,99
2023-09-27T07:06:33.264Z,99
2023-09-27T07:09:34.789Z,99
2023-09-27T07:15:14.115Z,99
2023-09-27T07:21:17.396Z,99
2023-09-27T07:27:14.864Z,98
2023-09-27T07:34:46.188Z,98
2023-09-27T07:36:17.652Z,98
2023-09-27T19:19:40.208Z,88
2023-09-27T19:21:11.691Z,88
2023-09-27T19:22:43.365Z,89
2023-09-27T19:24:15.052Z,89
2023-09-27T19:25:46.628Z,89
2023-09-27T19:46:48.774Z,88
2023-09-27T19:48:22.435Z,87
2023-09-27T19:49:54.089Z,87
2023-09-27T19:51:25.659Z,87
2023-09-27T19:52:57.677Z,87
2023-09-27T19:54:29.203Z,87
2023-09-27T19:56:00.771Z,87
2023-09-27T19:57:32.246Z,87
2023-09-27T20:03:35.042Z,87
2023-09-27T20:05:06.702Z,88
2023-09-27T20:06:38.161Z,88
2023-09-27T20:08:09.710Z,88
2023-09-27T20:12:41.368Z,89
2023-09-27T20:14:13.108Z,89
2023-09-27T20:15:45.989Z,89
2023-09-27T20:20:17.910Z,90
2023-09-27T20:25:18.200Z,90
2023-09-27T20:32:39.360Z,91
2023-09-27T20:37:11.079Z,91
2023-09-27T20:39:34.812Z,92
2023-09-27T20:42:35.761Z,92
2023-09-27T20:45:35.584Z,93
2023-09-27T20:48:36.079Z,93
2023-09-27T20:51:34.104Z,93
2023-09-27T20:55:16.384Z,93
2023-09-27T20:57:34.802Z,94
2023-09-27T20:59:56.304Z,94
2023-09-27T21:02:56.840Z,94
2023-09-27T21:09:42.776Z,95
2023-09-27T21:12:08.126Z,95
2023-09-27T21:15:08.815Z,95
2023-09-27T21:18:08.940Z,95
2023-09-27T21:21:08.433Z,95
2023-09-27T21:24:28.968Z,95
2023-09-27T21:27:08.361Z,94
2023-09-27T21:30:09.131Z,94
2023-09-27T21:33:08.912Z,94
2023-09-27T21:36:08.895Z,93
2023-09-27T21:39:18.650Z,92
2023-09-27T21:42:08.686Z,92
2023-09-27T21:45:08.811Z,92
2023-09-27T21:48:08.626Z,92
2023-09-27T21:51:38.916Z,92
2023-09-27T21:54:09.332Z,92
2023-09-27T21:57:09.773Z,92
2023-09-27T21:59:23.300Z,92
2023-09-27T22:02:23.596Z,92
2023-09-27T22:05:25.530Z,92
2023-09-27T22:08:34.229Z,92
2023-09-27T22:11:23.794Z,92
2023-09-27T22:14:23.833Z,92
2023-09-27T22:21:11.817Z,92
2023-09-27T22:23:24.863Z,93
2023-09-27T22:26:25.181Z,93
2023-09-27T22:29:25.638Z,93
2023-09-27T22:32:25.291Z,93
2023-09-27T22:39:13.291Z,93
2023-09-27T22:44:26.014Z,93
2023-09-27T22:47:26.488Z,93
2023-09-27T22:50:26.282Z,93
2023-09-27T22:57:11.739Z,94
2023-09-27T22:59:06.819Z,94
2023-09-27T23:02:07.155Z,94
2023-09-27T23:05:17.896Z,94
2023-09-27T23:08:06.990Z,94
2023-09-27T23:11:07.146Z,94
2023-09-27T23:14:07.694Z,94
2023-09-27T23:17:07.549Z,93
2023-09-27T23:20:07.512Z,93
2023-09-27T23:23:52.419Z,93
2023-09-27T23:26:07.834Z,93
2023-09-27T23:29:07.926Z,93
2023-09-27T23:32:08.151Z,93
2023-09-27T23:35:08.560Z,93
2023-09-27T23:38:08.537Z,93
2023-09-27T23:41:08.574Z,93
2023-09-27T23:44:09.299Z,93
2023-09-27T23:47:30.433Z,93
2023-09-27T23:50:08.986Z,93
2023-09-27T23:53:10.495Z,92
2023-09-27T23:56:09.284Z,92
2023-09-27T23:59:09.832Z,92
